sensor_id;sensor_type;location;lat;lon;timestamp;P1;durP1;ratioP1;P2;durP2;ratioP2
79261;SDS011;68699;48.220;16.358;2023-04-24T00:00:58;4.90;;;4.50;;
79261;SDS011;68699;48.220;16.358;2023-04-24T00:03:26;5.17;;;4.27;;
79261;SDS011;68699;48.220;16.358;2023-04-24T00:05:55;4.67;;;4.27;;
79261;SDS011;68699;48.220;16.358;2023-04-24T00:08:22;5.10;;;4.63;;
79261;SDS011;68699;48.220;16.358;2023-04-24T00:10:48;5.10;;;4.70;;
79261;SDS011;68699;48.220;16.358;2023-04-24T00:13:15;4.70;;;4.30;;
79261;SDS011;68699;48.220;16.358;2023-04-24T00:15:41;5.67;;;4.57;;
79261;SDS011;68699;48.220;16.358;2023-04-24T00:18:07;5.00;;;4.50;;
79261;SDS011;68699;48.220;16.358;2023-04-24T00:20:34;4.67;;;4.37;;
79261;SDS011;68699;48.220;16.358;2023-04-24T00:23:04;4.70;;;4.30;;
79261;SDS011;68699;48.220;16.358;2023-04-24T00:25:30;5.10;;;4.60;;
79261;SDS011;68699;48.220;16.358;2023-04-24T00:27:57;4.30;;;4.00;;
79261;SDS011;68699;48.220;16.358;2023-04-24T00:30:23;5.20;;;4.70;;
79261;SDS011;68699;48.220;16.358;2023-04-24T00:32:49;5.53;;;4.60;;
79261;SDS011;68699;48.220;16.358;2023-04-24T00:35:15;5.17;;;4.67;;
79261;SDS011;68699;48.220;16.358;2023-04-24T00:37:42;4.77;;;4.37;;
79261;SDS011;68699;48.220;16.358;2023-04-24T00:40:08;5.47;;;4.97;;
79261;SDS011;68699;48.220;16.358;2023-04-24T00:42:34;4.43;;;4.13;;
79261;SDS011;68699;48.220;16.358;2023-04-24T00:45:01;5.47;;;5.00;;
79261;SDS011;68699;48.220;16.358;2023-04-24T00:47:28;5.30;;;4.83;;
79261;SDS011;68699;48.220;16.358;2023-04-24T00:49:55;5.40;;;4.57;;
79261;SDS011;68699;48.220;16.358;2023-04-24T00:52:21;4.97;;;4.50;;
79261;SDS011;68699;48.220;16.358;2023-04-24T00:54:49;4.67;;;4.27;;
79261;SDS011;68699;48.220;16.358;2023-04-24T00:57:15;4.60;;;4.30;;
79261;SDS011;68699;48.220;16.358;2023-04-24T00:59:42;4.70;;;4.20;;
79261;SDS011;68699;48.220;16.358;2023-04-24T01:02:09;5.10;;;4.70;;
79261;SDS011;68699;48.220;16.358;2023-04-24T01:04:36;5.27;;;4.77;;
79261;SDS011;68699;48.220;16.358;2023-04-24T01:07:03;5.80;;;4.77;;
79261;SDS011;68699;48.220;16.358;2023-04-24T01:09:34;4.50;;;4.13;;
79261;SDS011;68699;48.220;16.358;2023-04-24T01:12:01;5.10;;;4.70;;
79261;SDS011;68699;48.220;16.358;2023-04-24T01:14:28;4.90;;;4.53;;
79261;SDS011;68699;48.220;16.358;2023-04-24T01:16:54;5.03;;;4.53;;
79261;SDS011;68699;48.220;16.358;2023-04-24T01:19:20;4.77;;;4.30;;
79261;SDS011;68699;48.220;16.358;2023-04-24T01:21:46;5.10;;;4.60;;
79261;SDS011;68699;48.220;16.358;2023-04-24T01:24:13;5.40;;;4.90;;
79261;SDS011;68699;48.220;16.358;2023-04-24T01:26:39;4.80;;;4.40;;
79261;SDS011;68699;48.220;16.358;2023-04-24T01:29:05;4.73;;;4.33;;
79261;SDS011;68699;48.220;16.358;2023-04-24T01:31:32;5.57;;;5.00;;
79261;SDS011;68699;48.220;16.358;2023-04-24T01:33:58;4.90;;;4.50;;
79261;SDS011;68699;48.220;16.358;2023-04-24T01:36:25;5.77;;;4.90;;
79261;SDS011;68699;48.220;16.358;2023-04-24T01:38:53;5.47;;;4.90;;
79261;SDS011;68699;48.220;16.358;2023-04-24T01:41:19;4.93;;;4.53;;
79261;SDS011;68699;48.220;16.358;2023-04-24T01:43:45;5.70;;;5.10;;
79261;SDS011;68699;48.220;16.358;2023-04-24T01:46:12;5.77;;;5.10;;
79261;SDS011;68699;48.220;16.358;2023-04-24T01:48:38;5.57;;;5.07;;
79261;SDS011;68699;48.220;16.358;2023-04-24T01:51:04;5.30;;;4.80;;
79261;SDS011;68699;48.220;16.358;2023-04-24T01:53:30;6.07;;;5.57;;
79261;SDS011;68699;48.220;16.358;2023-04-24T01:55:56;5.43;;;4.93;;
79261;SDS011;68699;48.220;16.358;2023-04-24T01:58:23;6.33;;;5.37;;
79261;SDS011;68699;48.220;16.358;2023-04-24T02:00:49;6.00;;;5.37;;
79261;SDS011;68699;48.220;16.358;2023-04-24T02:03:15;6.13;;;5.63;;
79261;SDS011;68699;48.220;16.358;2023-04-24T02:05:43;5.70;;;5.20;;
79261;SDS011;68699;48.220;16.358;2023-04-24T02:08:10;5.27;;;4.87;;
79261;SDS011;68699;48.220;16.358;2023-04-24T02:10:36;5.47;;;5.07;;
79261;SDS011;68699;48.220;16.358;2023-04-24T02:13:02;5.57;;;5.07;;
79261;SDS011;68699;48.220;16.358;2023-04-24T02:15:29;4.90;;;4.60;;
79261;SDS011;68699;48.220;16.358;2023-04-24T02:17:56;5.10;;;4.60;;
79261;SDS011;68699;48.220;16.358;2023-04-24T02:20:22;4.73;;;4.33;;
79261;SDS011;68699;48.220;16.358;2023-04-24T02:22:48;4.77;;;4.30;;
79261;SDS011;68699;48.220;16.358;2023-04-24T02:25:15;4.50;;;4.10;;
79261;SDS011;68699;48.220;16.358;2023-04-24T02:27:41;4.20;;;3.90;;
79261;SDS011;68699;48.220;16.358;2023-04-24T02:30:07;3.87;;;3.53;;
79261;SDS011;68699;48.220;16.358;2023-04-24T02:32:33;3.90;;;3.60;;
79261;SDS011;68699;48.220;16.358;2023-04-24T02:35:00;3.43;;;3.13;;
79261;SDS011;68699;48.220;16.358;2023-04-24T02:37:27;4.77;;;3.50;;
79261;SDS011;68699;48.220;16.358;2023-04-24T02:39:53;5.93;;;3.80;;
79261;SDS011;68699;48.220;16.358;2023-04-24T02:42:19;4.07;;;3.67;;
79261;SDS011;68699;48.220;16.358;2023-04-24T02:44:46;4.17;;;3.83;;
79261;SDS011;68699;48.220;16.358;2023-04-24T02:47:12;3.73;;;3.43;;
79261;SDS011;68699;48.220;16.358;2023-04-24T02:49:38;4.90;;;3.83;;
79261;SDS011;68699;48.220;16.358;2023-04-24T02:52:04;3.83;;;3.53;;
79261;SDS011;68699;48.220;16.358;2023-04-24T02:54:30;4.40;;;4.10;;
79261;SDS011;68699;48.220;16.358;2023-04-24T02:56:56;3.83;;;3.53;;
79261;SDS011;68699;48.220;16.358;2023-04-24T02:59:23;3.60;;;3.30;;
79261;SDS011;68699;48.220;16.358;2023-04-24T03:01:49;4.00;;;3.60;;
79261;SDS011;68699;48.220;16.358;2023-04-24T03:04:15;4.57;;;3.20;;
79261;SDS011;68699;48.220;16.358;2023-04-24T03:06:45;4.03;;;3.63;;
79261;SDS011;68699;48.220;16.358;2023-04-24T03:09:11;3.50;;;3.20;;
79261;SDS011;68699;48.220;16.358;2023-04-24T03:11:37;4.03;;;3.73;;
79261;SDS011;68699;48.220;16.358;2023-04-24T03:14:04;3.47;;;3.20;;
79261;SDS011;68699;48.220;16.358;2023-04-24T03:16:30;3.67;;;3.37;;
79261;SDS011;68699;48.220;16.358;2023-04-24T03:18:58;3.30;;;3.10;;
79261;SDS011;68699;48.220;16.358;2023-04-24T03:21:24;4.10;;;3.70;;
79261;SDS011;68699;48.220;16.358;2023-04-24T03:23:51;3.30;;;3.10;;
79261;SDS011;68699;48.220;16.358;2023-04-24T03:26:17;4.03;;;3.60;;
79261;SDS011;68699;48.220;16.358;2023-04-24T03:28:44;3.40;;;3.20;;
79261;SDS011;68699;48.220;16.358;2023-04-24T03:31:10;3.33;;;3.10;;
79261;SDS011;68699;48.220;16.358;2023-04-24T03:33:36;3.90;;;3.60;;
79261;SDS011;68699;48.220;16.358;2023-04-24T03:36:02;3.83;;;3.23;;
79261;SDS011;68699;48.220;16.358;2023-04-24T03:38:30;3.47;;;3.20;;
79261;SDS011;68699;48.220;16.358;2023-04-24T03:40:56;3.50;;;3.20;;
79261;SDS011;68699;48.220;16.358;2023-04-24T03:43:22;3.83;;;3.43;;
79261;SDS011;68699;48.220;16.358;2023-04-24T03:45:49;3.57;;;3.33;;
79261;SDS011;68699;48.220;16.358;2023-04-24T03:48:15;3.47;;;3.10;;
79261;SDS011;68699;48.220;16.358;2023-04-24T03:50:41;4.10;;;3.70;;
79261;SDS011;68699;48.220;16.358;2023-04-24T03:53:07;3.53;;;3.23;;
79261;SDS011;68699;48.220;16.358;2023-04-24T03:55:33;3.80;;;3.50;;
79261;SDS011;68699;48.220;16.358;2023-04-24T03:58:00;4.77;;;3.10;;
79261;SDS011;68699;48.220;16.358;2023-04-24T04:00:26;3.53;;;3.30;;
79261;SDS011;68699;48.220;16.358;2023-04-24T04:02:52;4.63;;;3.40;;
79261;SDS011;68699;48.220;16.358;2023-04-24T04:05:19;3.80;;;3.50;;
79261;SDS011;68699;48.220;16.358;2023-04-24T04:07:45;3.43;;;3.13;;
79261;SDS011;68699;48.220;16.358;2023-04-24T04:10:11;3.07;;;2.87;;
79261;SDS011;68699;48.220;16.358;2023-04-24T04:12:37;3.30;;;3.10;;
79261;SDS011;68699;48.220;16.358;2023-04-24T04:15:04;3.10;;;2.90;;
79261;SDS011;68699;48.220;16.358;2023-04-24T04:17:31;3.10;;;2.90;;
79261;SDS011;68699;48.220;16.358;2023-04-24T04:19:58;3.57;;;3.27;;
79261;SDS011;68699;48.220;16.358;2023-04-24T04:22:24;3.30;;;3.00;;
79261;SDS011;68699;48.220;16.358;2023-04-24T04:24:50;3.53;;;3.30;;
79261;SDS011;68699;48.220;16.358;2023-04-24T04:27:16;3.67;;;3.37;;
79261;SDS011;68699;48.220;16.358;2023-04-24T04:29:44;2.97;;;2.70;;
79261;SDS011;68699;48.220;16.358;2023-04-24T04:32:10;4.87;;;2.80;;
79261;SDS011;68699;48.220;16.358;2023-04-24T04:34:36;3.50;;;3.20;;
79261;SDS011;68699;48.220;16.358;2023-04-24T04:37:03;3.13;;;2.83;;
79261;SDS011;68699;48.220;16.358;2023-04-24T04:39:29;3.50;;;2.77;;
79261;SDS011;68699;48.220;16.358;2023-04-24T04:41:55;3.00;;;2.77;;
79261;SDS011;68699;48.220;16.358;2023-04-24T04:44:22;2.90;;;2.60;;
79261;SDS011;68699;48.220;16.358;2023-04-24T04:46:48;4.13;;;2.77;;
79261;SDS011;68699;48.220;16.358;2023-04-24T04:49:15;4.33;;;2.40;;
79261;SDS011;68699;48.220;16.358;2023-04-24T04:51:42;2.80;;;2.60;;
79261;SDS011;68699;48.220;16.358;2023-04-24T04:54:08;3.20;;;2.80;;
79261;SDS011;68699;48.220;16.358;2023-04-24T04:56:34;2.90;;;2.47;;
79261;SDS011;68699;48.220;16.358;2023-04-24T04:59:00;3.10;;;2.50;;
79261;SDS011;68699;48.220;16.358;2023-04-24T05:01:26;2.83;;;2.40;;
79261;SDS011;68699;48.220;16.358;2023-04-24T05:03:52;2.83;;;2.43;;
79261;SDS011;68699;48.220;16.358;2023-04-24T05:06:18;3.87;;;2.87;;
79261;SDS011;68699;48.220;16.358;2023-04-24T05:08:45;2.80;;;2.50;;
79261;SDS011;68699;48.220;16.358;2023-04-24T05:11:11;2.40;;;2.20;;
79261;SDS011;68699;48.220;16.358;2023-04-24T05:13:38;2.90;;;2.70;;
79261;SDS011;68699;48.220;16.358;2023-04-24T05:16:04;2.87;;;2.40;;
79261;SDS011;68699;48.220;16.358;2023-04-24T05:18:30;2.60;;;2.40;;
79261;SDS011;68699;48.220;16.358;2023-04-24T05:20:56;2.67;;;2.47;;
79261;SDS011;68699;48.220;16.358;2023-04-24T05:23:22;3.60;;;2.47;;
79261;SDS011;68699;48.220;16.358;2023-04-24T05:25:48;2.60;;;2.37;;
79261;SDS011;68699;48.220;16.358;2023-04-24T05:28:15;2.03;;;1.93;;
79261;SDS011;68699;48.220;16.358;2023-04-24T05:30:41;2.23;;;2.03;;
79261;SDS011;68699;48.220;16.358;2023-04-24T05:33:07;2.80;;;2.50;;
79261;SDS011;68699;48.220;16.358;2023-04-24T05:35:34;3.07;;;2.30;;
79261;SDS011;68699;48.220;16.358;2023-04-24T05:38:01;2.70;;;2.50;;
79261;SDS011;68699;48.220;16.358;2023-04-24T05:40:27;2.80;;;2.60;;
79261;SDS011;68699;48.220;16.358;2023-04-24T05:42:53;2.57;;;2.30;;
79261;SDS011;68699;48.220;16.358;2023-04-24T05:45:19;2.63;;;2.33;;
79261;SDS011;68699;48.220;16.358;2023-04-24T05:47:45;3.57;;;2.30;;
79261;SDS011;68699;48.220;16.358;2023-04-24T05:50:12;2.47;;;2.23;;
79261;SDS011;68699;48.220;16.358;2023-04-24T05:52:38;2.40;;;2.30;;
79261;SDS011;68699;48.220;16.358;2023-04-24T05:55:04;2.30;;;2.10;;
79261;SDS011;68699;48.220;16.358;2023-04-24T05:57:31;2.00;;;1.90;;
79261;SDS011;68699;48.220;16.358;2023-04-24T05:59:57;2.50;;;2.30;;
79261;SDS011;68699;48.220;16.358;2023-04-24T06:02:23;2.50;;;2.30;;
79261;SDS011;68699;48.220;16.358;2023-04-24T06:04:49;3.13;;;2.17;;
79261;SDS011;68699;48.220;16.358;2023-04-24T06:07:16;3.00;;;2.07;;
79261;SDS011;68699;48.220;16.358;2023-04-24T06:09:42;2.20;;;2.00;;
79261;SDS011;68699;48.220;16.358;2023-04-24T06:12:08;3.60;;;2.53;;
79261;SDS011;68699;48.220;16.358;2023-04-24T06:14:35;2.67;;;2.47;;
79261;SDS011;68699;48.220;16.358;2023-04-24T06:17:01;2.40;;;2.20;;
79261;SDS011;68699;48.220;16.358;2023-04-24T06:19:27;2.77;;;2.57;;
79261;SDS011;68699;48.220;16.358;2023-04-24T06:21:53;2.77;;;2.03;;
79261;SDS011;68699;48.220;16.358;2023-04-24T06:24:19;2.20;;;2.10;;
79261;SDS011;68699;48.220;16.358;2023-04-24T06:26:46;2.30;;;2.10;;
79261;SDS011;68699;48.220;16.358;2023-04-24T06:29:12;2.97;;;2.20;;
79261;SDS011;68699;48.220;16.358;2023-04-24T06:31:38;2.10;;;1.90;;
79261;SDS011;68699;48.220;16.358;2023-04-24T06:34:05;2.03;;;1.90;;
79261;SDS011;68699;48.220;16.358;2023-04-24T06:36:31;2.33;;;2.00;;
79261;SDS011;68699;48.220;16.358;2023-04-24T06:38:59;2.13;;;1.93;;
79261;SDS011;68699;48.220;16.358;2023-04-24T06:41:25;2.50;;;2.30;;
79261;SDS011;68699;48.220;16.358;2023-04-24T06:43:51;2.47;;;2.27;;
79261;SDS011;68699;48.220;16.358;2023-04-24T06:46:17;2.30;;;2.20;;
79261;SDS011;68699;48.220;16.358;2023-04-24T06:48:44;2.30;;;2.10;;
79261;SDS011;68699;48.220;16.358;2023-04-24T06:51:10;2.20;;;1.97;;
79261;SDS011;68699;48.220;16.358;2023-04-24T06:53:36;2.20;;;2.00;;
79261;SDS011;68699;48.220;16.358;2023-04-24T06:56:02;2.00;;;1.90;;
79261;SDS011;68699;48.220;16.358;2023-04-24T06:58:30;2.10;;;1.90;;
79261;SDS011;68699;48.220;16.358;2023-04-24T07:00:56;2.23;;;1.90;;
79261;SDS011;68699;48.220;16.358;2023-04-24T07:03:22;2.40;;;2.20;;
79261;SDS011;68699;48.220;16.358;2023-04-24T07:05:48;2.00;;;1.70;;
79261;SDS011;68699;48.220;16.358;2023-04-24T07:08:15;2.27;;;1.70;;
79261;SDS011;68699;48.220;16.358;2023-04-24T07:10:43;2.00;;;1.90;;
79261;SDS011;68699;48.220;16.358;2023-04-24T07:13:09;2.97;;;1.90;;
79261;SDS011;68699;48.220;16.358;2023-04-24T07:15:35;2.50;;;1.80;;
79261;SDS011;68699;48.220;16.358;2023-04-24T07:18:01;2.10;;;1.93;;
79261;SDS011;68699;48.220;16.358;2023-04-24T07:20:27;2.50;;;1.90;;
79261;SDS011;68699;48.220;16.358;2023-04-24T07:22:53;2.13;;;1.80;;
79261;SDS011;68699;48.220;16.358;2023-04-24T07:25:20;2.00;;;1.80;;
79261;SDS011;68699;48.220;16.358;2023-04-24T07:27:46;2.00;;;1.90;;
79261;SDS011;68699;48.220;16.358;2023-04-24T07:30:14;2.30;;;2.10;;
79261;SDS011;68699;48.220;16.358;2023-04-24T07:32:40;2.80;;;2.20;;
79261;SDS011;68699;48.220;16.358;2023-04-24T07:35:06;3.03;;;2.10;;
79261;SDS011;68699;48.220;16.358;2023-04-24T07:37:34;2.10;;;1.90;;
79261;SDS011;68699;48.220;16.358;2023-04-24T07:40:00;2.17;;;1.90;;
79261;SDS011;68699;48.220;16.358;2023-04-24T07:42:27;2.00;;;1.90;;
79261;SDS011;68699;48.220;16.358;2023-04-24T07:44:55;3.10;;;1.97;;
79261;SDS011;68699;48.220;16.358;2023-04-24T07:47:21;1.70;;;1.60;;
79261;SDS011;68699;48.220;16.358;2023-04-24T07:49:47;2.30;;;1.93;;
79261;SDS011;68699;48.220;16.358;2023-04-24T07:52:14;1.87;;;1.77;;
79261;SDS011;68699;48.220;16.358;2023-04-24T07:54:40;2.93;;;1.80;;
79261;SDS011;68699;48.220;16.358;2023-04-24T07:57:07;2.17;;;1.57;;
79261;SDS011;68699;48.220;16.358;2023-04-24T07:59:34;1.97;;;1.67;;
79261;SDS011;68699;48.220;16.358;2023-04-24T08:02:00;1.60;;;1.50;;
79261;SDS011;68699;48.220;16.358;2023-04-24T08:04:26;1.93;;;1.67;;
79261;SDS011;68699;48.220;16.358;2023-04-24T08:06:53;2.80;;;1.90;;
79261;SDS011;68699;48.220;16.358;2023-04-24T08:09:19;2.63;;;1.60;;
79261;SDS011;68699;48.220;16.358;2023-04-24T08:11:45;1.90;;;1.80;;
79261;SDS011;68699;48.220;16.358;2023-04-24T08:14:11;1.80;;;1.70;;
79261;SDS011;68699;48.220;16.358;2023-04-24T08:16:38;1.90;;;1.80;;
79261;SDS011;68699;48.220;16.358;2023-04-24T08:19:04;2.10;;;1.90;;
79261;SDS011;68699;48.220;16.358;2023-04-24T08:21:30;2.47;;;1.80;;
79261;SDS011;68699;48.220;16.358;2023-04-24T08:23:56;1.93;;;1.83;;
79261;SDS011;68699;48.220;16.358;2023-04-24T08:26:22;2.77;;;1.70;;
79261;SDS011;68699;48.220;16.358;2023-04-24T08:28:49;3.00;;;1.73;;
79261;SDS011;68699;48.220;16.358;2023-04-24T08:31:15;3.20;;;1.70;;
79261;SDS011;68699;48.220;16.358;2023-04-24T08:33:41;1.63;;;1.53;;
79261;SDS011;68699;48.220;16.358;2023-04-24T08:36:09;1.57;;;1.40;;
79261;SDS011;68699;48.220;16.358;2023-04-24T08:38:36;1.90;;;1.60;;
79261;SDS011;68699;48.220;16.358;2023-04-24T08:41:02;1.67;;;1.53;;
79261;SDS011;68699;48.220;16.358;2023-04-24T08:43:29;2.40;;;1.20;;
79261;SDS011;68699;48.220;16.358;2023-04-24T08:45:56;4.90;;;1.53;;
79261;SDS011;68699;48.220;16.358;2023-04-24T08:48:24;1.47;;;1.37;;
79261;SDS011;68699;48.220;16.358;2023-04-24T08:50:51;1.57;;;1.07;;
79261;SDS011;68699;48.220;16.358;2023-04-24T08:53:17;2.10;;;1.33;;
79261;SDS011;68699;48.220;16.358;2023-04-24T08:55:46;2.13;;;1.30;;
79261;SDS011;68699;48.220;16.358;2023-04-24T08:58:13;1.40;;;1.30;;
79261;SDS011;68699;48.220;16.358;2023-04-24T09:00:39;2.10;;;1.10;;
79261;SDS011;68699;48.220;16.358;2023-04-24T09:03:09;1.07;;;1.07;;
79261;SDS011;68699;48.220;16.358;2023-04-24T09:05:35;1.50;;;1.30;;
79261;SDS011;68699;48.220;16.358;2023-04-24T09:08:02;1.20;;;1.13;;
79261;SDS011;68699;48.220;16.358;2023-04-24T09:10:29;1.20;;;1.10;;
79261;SDS011;68699;48.220;16.358;2023-04-24T09:12:56;2.93;;;1.30;;
79261;SDS011;68699;48.220;16.358;2023-04-24T09:15:23;2.70;;;1.40;;
79261;SDS011;68699;48.220;16.358;2023-04-24T09:17:50;0.93;;;0.93;;
79261;SDS011;68699;48.220;16.358;2023-04-24T09:20:17;1.60;;;1.00;;
79261;SDS011;68699;48.220;16.358;2023-04-24T09:22:43;1.13;;;0.93;;
79261;SDS011;68699;48.220;16.358;2023-04-24T09:25:10;1.23;;;1.17;;
79261;SDS011;68699;48.220;16.358;2023-04-24T09:27:41;1.13;;;1.13;;
79261;SDS011;68699;48.220;16.358;2023-04-24T09:30:07;1.17;;;0.83;;
79261;SDS011;68699;48.220;16.358;2023-04-24T09:32:34;0.80;;;0.80;;
79261;SDS011;68699;48.220;16.358;2023-04-24T09:35:07;1.10;;;1.10;;
79261;SDS011;68699;48.220;16.358;2023-04-24T09:37:37;1.07;;;0.93;;
79261;SDS011;68699;48.220;16.358;2023-04-24T09:40:17;0.90;;;0.90;;
79261;SDS011;68699;48.220;16.358;2023-04-24T09:42:50;0.90;;;0.90;;
79261;SDS011;68699;48.220;16.358;2023-04-24T09:45:17;1.90;;;1.10;;
79261;SDS011;68699;48.220;16.358;2023-04-24T09:47:43;1.60;;;0.90;;
79261;SDS011;68699;48.220;16.358;2023-04-24T09:50:11;1.27;;;1.07;;
79261;SDS011;68699;48.220;16.358;2023-04-24T09:52:40;0.90;;;0.90;;
79261;SDS011;68699;48.220;16.358;2023-04-24T09:55:15;1.20;;;1.10;;
79261;SDS011;68699;48.220;16.358;2023-04-24T09:58:03;0.70;;;0.70;;
79261;SDS011;68699;48.220;16.358;2023-04-24T10:00:31;0.90;;;0.90;;
79261;SDS011;68699;48.220;16.358;2023-04-24T10:02:58;1.63;;;1.17;;
79261;SDS011;68699;48.220;16.358;2023-04-24T10:08:00;1.23;;;0.83;;
79261;SDS011;68699;48.220;16.358;2023-04-24T10:10:28;1.03;;;0.90;;
79261;SDS011;68699;48.220;16.358;2023-04-24T10:12:54;1.10;;;1.10;;
79261;SDS011;68699;48.220;16.358;2023-04-24T10:15:21;1.43;;;1.00;;
79261;SDS011;68699;48.220;16.358;2023-04-24T10:17:50;1.10;;;0.90;;
79261;SDS011;68699;48.220;16.358;2023-04-24T10:20:23;0.73;;;0.73;;
79261;SDS011;68699;48.220;16.358;2023-04-24T10:22:51;1.03;;;0.90;;
79261;SDS011;68699;48.220;16.358;2023-04-24T10:25:18;1.60;;;0.93;;
79261;SDS011;68699;48.220;16.358;2023-04-24T10:27:46;1.10;;;1.00;;
79261;SDS011;68699;48.220;16.358;2023-04-24T10:30:12;1.10;;;1.10;;
79261;SDS011;68699;48.220;16.358;2023-04-24T10:32:39;1.00;;;1.00;;
79261;SDS011;68699;48.220;16.358;2023-04-24T10:35:09;1.13;;;1.00;;
79261;SDS011;68699;48.220;16.358;2023-04-24T10:37:43;0.97;;;0.90;;
79261;SDS011;68699;48.220;16.358;2023-04-24T10:40:10;1.20;;;1.10;;
79261;SDS011;68699;48.220;16.358;2023-04-24T10:42:39;2.47;;;1.33;;
79261;SDS011;68699;48.220;16.358;2023-04-24T10:45:15;1.60;;;1.50;;
79261;SDS011;68699;48.220;16.358;2023-04-24T10:47:43;1.47;;;1.23;;
79261;SDS011;68699;48.220;16.358;2023-04-24T10:50:16;5.50;;;1.30;;
79261;SDS011;68699;48.220;16.358;2023-04-24T10:52:46;1.77;;;1.00;;
79261;SDS011;68699;48.220;16.358;2023-04-24T10:55:13;1.20;;;1.20;;
79261;SDS011;68699;48.220;16.358;2023-04-24T10:57:41;1.10;;;1.10;;
79261;SDS011;68699;48.220;16.358;2023-04-24T11:00:28;1.00;;;1.00;;
79261;SDS011;68699;48.220;16.358;2023-04-24T11:02:54;0.97;;;0.93;;
79261;SDS011;68699;48.220;16.358;2023-04-24T11:05:21;1.90;;;1.00;;
79261;SDS011;68699;48.220;16.358;2023-04-24T11:10:32;1.10;;;1.10;;
79261;SDS011;68699;48.220;16.358;2023-04-24T11:12:58;1.07;;;1.07;;
79261;SDS011;68699;48.220;16.358;2023-04-24T11:15:24;1.30;;;1.20;;
79261;SDS011;68699;48.220;16.358;2023-04-24T11:17:50;1.90;;;1.00;;
79261;SDS011;68699;48.220;16.358;2023-04-24T11:20:22;2.03;;;1.03;;
79261;SDS011;68699;48.220;16.358;2023-04-24T11:22:52;1.47;;;1.17;;
79261;SDS011;68699;48.220;16.358;2023-04-24T11:25:19;1.43;;;1.30;;
79261;SDS011;68699;48.220;16.358;2023-04-24T11:27:47;1.30;;;1.20;;
79261;SDS011;68699;48.220;16.358;2023-04-24T11:30:18;1.30;;;1.10;;
79261;SDS011;68699;48.220;16.358;2023-04-24T11:32:48;1.33;;;1.23;;
79261;SDS011;68699;48.220;16.358;2023-04-24T11:37:52;1.17;;;1.17;;
79261;SDS011;68699;48.220;16.358;2023-04-24T11:40:18;0.90;;;0.90;;
79261;SDS011;68699;48.220;16.358;2023-04-24T11:42:50;1.33;;;1.10;;
79261;SDS011;68699;48.220;16.358;2023-04-24T11:45:18;1.20;;;1.10;;
79261;SDS011;68699;48.220;16.358;2023-04-24T11:47:44;1.53;;;1.13;;
79261;SDS011;68699;48.220;16.358;2023-04-24T11:50:12;1.20;;;1.10;;
79261;SDS011;68699;48.220;16.358;2023-04-24T11:52:39;1.77;;;1.07;;
79261;SDS011;68699;48.220;16.358;2023-04-24T11:55:22;1.40;;;1.30;;
79261;SDS011;68699;48.220;16.358;2023-04-24T11:57:52;2.37;;;1.20;;
79261;SDS011;68699;48.220;16.358;2023-04-24T12:00:20;1.23;;;1.17;;
79261;SDS011;68699;48.220;16.358;2023-04-24T12:02:46;1.60;;;1.13;;
79261;SDS011;68699;48.220;16.358;2023-04-24T12:05:26;2.07;;;1.40;;
79261;SDS011;68699;48.220;16.358;2023-04-24T12:07:52;2.00;;;1.90;;
79261;SDS011;68699;48.220;16.358;2023-04-24T12:10:22;1.63;;;1.53;;
79261;SDS011;68699;48.220;16.358;2023-04-24T12:12:49;1.67;;;1.47;;
79261;SDS011;68699;48.220;16.358;2023-04-24T12:15:17;1.53;;;1.30;;
79261;SDS011;68699;48.220;16.358;2023-04-24T12:17:43;0.90;;;0.90;;
79261;SDS011;68699;48.220;16.358;2023-04-24T12:20:09;1.37;;;1.27;;
79261;SDS011;68699;48.220;16.358;2023-04-24T12:22:43;1.57;;;1.40;;
79261;SDS011;68699;48.220;16.358;2023-04-24T12:25:11;1.30;;;1.20;;
79261;SDS011;68699;48.220;16.358;2023-04-24T12:27:37;1.37;;;1.27;;
79261;SDS011;68699;48.220;16.358;2023-04-24T12:30:04;1.43;;;1.33;;
79261;SDS011;68699;48.220;16.358;2023-04-24T12:32:30;2.20;;;1.10;;
79261;SDS011;68699;48.220;16.358;2023-04-24T12:34:57;1.30;;;1.20;;
79261;SDS011;68699;48.220;16.358;2023-04-24T12:37:24;2.20;;;1.27;;
79261;SDS011;68699;48.220;16.358;2023-04-24T12:40:04;1.47;;;1.37;;
79261;SDS011;68699;48.220;16.358;2023-04-24T12:42:32;2.13;;;1.40;;
79261;SDS011;68699;48.220;16.358;2023-04-24T12:44:58;1.20;;;1.10;;
79261;SDS011;68699;48.220;16.358;2023-04-24T12:47:25;1.30;;;1.20;;
79261;SDS011;68699;48.220;16.358;2023-04-24T12:49:52;1.97;;;1.50;;
79261;SDS011;68699;48.220;16.358;2023-04-24T12:52:18;1.70;;;1.30;;
79261;SDS011;68699;48.220;16.358;2023-04-24T12:54:49;1.57;;;1.47;;
79261;SDS011;68699;48.220;16.358;2023-04-24T12:57:15;1.63;;;1.53;;
79261;SDS011;68699;48.220;16.358;2023-04-24T12:59:42;1.73;;;1.60;;
79261;SDS011;68699;48.220;16.358;2023-04-24T13:02:08;1.73;;;1.63;;
79261;SDS011;68699;48.220;16.358;2023-04-24T13:04:35;1.60;;;1.50;;
79261;SDS011;68699;48.220;16.358;2023-04-24T13:07:01;1.80;;;1.50;;
79261;SDS011;68699;48.220;16.358;2023-04-24T13:09:27;1.43;;;1.37;;
79261;SDS011;68699;48.220;16.358;2023-04-24T13:11:54;1.40;;;1.30;;
79261;SDS011;68699;48.220;16.358;2023-04-24T13:14:22;1.97;;;1.50;;
79261;SDS011;68699;48.220;16.358;2023-04-24T13:16:48;1.87;;;1.77;;
79261;SDS011;68699;48.220;16.358;2023-04-24T13:19:14;2.53;;;1.80;;
79261;SDS011;68699;48.220;16.358;2023-04-24T13:21:41;2.60;;;2.40;;
79261;SDS011;68699;48.220;16.358;2023-04-24T13:24:07;2.60;;;1.83;;
79261;SDS011;68699;48.220;16.358;2023-04-24T13:26:33;1.60;;;1.50;;
79261;SDS011;68699;48.220;16.358;2023-04-24T13:29:00;2.10;;;1.90;;
79261;SDS011;68699;48.220;16.358;2023-04-24T13:31:26;2.00;;;1.90;;
79261;SDS011;68699;48.220;16.358;2023-04-24T13:33:52;1.40;;;1.40;;
79261;SDS011;68699;48.220;16.358;2023-04-24T13:36:18;1.50;;;1.37;;
79261;SDS011;68699;48.220;16.358;2023-04-24T13:38:44;1.87;;;1.50;;
79261;SDS011;68699;48.220;16.358;2023-04-24T13:41:10;2.10;;;1.90;;
79261;SDS011;68699;48.220;16.358;2023-04-24T13:43:36;2.80;;;2.60;;
79261;SDS011;68699;48.220;16.358;2023-04-24T13:46:03;2.13;;;1.80;;
79261;SDS011;68699;48.220;16.358;2023-04-24T13:48:29;1.90;;;1.80;;
79261;SDS011;68699;48.220;16.358;2023-04-24T13:50:56;2.20;;;2.10;;
79261;SDS011;68699;48.220;16.358;2023-04-24T13:53:23;2.13;;;1.90;;
79261;SDS011;68699;48.220;16.358;2023-04-24T13:55:49;2.33;;;2.03;;
79261;SDS011;68699;48.220;16.358;2023-04-24T13:58:16;1.90;;;1.80;;
79261;SDS011;68699;48.220;16.358;2023-04-24T14:00:42;1.67;;;1.57;;
79261;SDS011;68699;48.220;16.358;2023-04-24T14:03:08;1.80;;;1.70;;
79261;SDS011;68699;48.220;16.358;2023-04-24T14:05:34;2.60;;;1.67;;
79261;SDS011;68699;48.220;16.358;2023-04-24T14:08:00;1.37;;;1.37;;
79261;SDS011;68699;48.220;16.358;2023-04-24T14:10:26;1.40;;;1.30;;
79261;SDS011;68699;48.220;16.358;2023-04-24T14:12:53;1.33;;;1.20;;
79261;SDS011;68699;48.220;16.358;2023-04-24T14:15:19;1.73;;;1.20;;
79261;SDS011;68699;48.220;16.358;2023-04-24T14:17:47;1.50;;;1.20;;
79261;SDS011;68699;48.220;16.358;2023-04-24T14:20:14;1.40;;;1.30;;
79261;SDS011;68699;48.220;16.358;2023-04-24T14:22:40;1.20;;;1.20;;
79261;SDS011;68699;48.220;16.358;2023-04-24T14:25:06;1.10;;;1.10;;
79261;SDS011;68699;48.220;16.358;2023-04-24T14:27:32;2.60;;;1.50;;
79261;SDS011;68699;48.220;16.358;2023-04-24T14:30:00;1.40;;;1.30;;
79261;SDS011;68699;48.220;16.358;2023-04-24T14:32:26;1.97;;;1.80;;
79261;SDS011;68699;48.220;16.358;2023-04-24T14:34:53;2.30;;;1.70;;
79261;SDS011;68699;48.220;16.358;2023-04-24T14:37:19;2.47;;;1.70;;
79261;SDS011;68699;48.220;16.358;2023-04-24T14:39:46;2.03;;;1.93;;